createdAt,value
2022-11-03T00:01:35.445Z,0
2022-11-03T00:11:12.591Z,0
2022-11-03T00:20:49.309Z,0
2022-11-03T00:30:25.971Z,0
2022-11-03T00:40:02.597Z,0
2022-11-03T00:49:39.363Z,0
2022-11-03T00:59:15.726Z,0
2022-11-03T01:08:52.550Z,0
2022-11-03T01:28:06.233Z,0
2022-11-03T01:37:42.870Z,0
2022-11-03T01:47:19.411Z,0
2022-11-03T01:56:55.548Z,0
2022-11-03T02:16:08.266Z,0
2022-11-03T02:25:45.512Z,0
2022-11-03T02:35:22.155Z,0
2022-11-03T02:54:34.419Z,0
2022-11-03T03:13:46.558Z,0
2022-11-03T03:23:22.725Z,0
2022-11-03T03:32:59.122Z,0
2022-11-03T03:52:13.439Z,0
2022-11-03T04:01:50.145Z,0
2022-11-03T04:11:26.327Z,0
2022-11-03T04:21:03.133Z,0
2022-11-03T04:40:17.052Z,0
2022-11-03T04:49:53.585Z,0
2022-11-03T05:14:05.377Z,0
2022-11-03T05:23:40.606Z,0
2022-11-03T05:33:17.031Z,0
2022-11-03T05:42:52.257Z,1.67
2022-11-03T06:02:05.263Z,26.67
2022-11-03T06:11:42.050Z,69.17
2022-11-03T06:21:18.712Z,139.17
2022-11-03T06:30:55.965Z,253.33
2022-11-03T06:40:33.493Z,372.5
2022-11-03T06:50:10.258Z,496.67
2022-11-03T06:59:46.566Z,572.5
2022-11-03T07:09:24.214Z,795
2022-11-03T07:19:01.195Z,1003.33
2022-11-03T07:28:38.783Z,1200
2022-11-03T07:38:16.703Z,1346.67
2022-11-03T07:47:55.208Z,1345.83
2022-11-03T07:57:32.571Z,1404.17
2022-11-03T08:11:20.987Z,1675
2022-11-03T08:23:56.870Z,1781.67
2022-11-03T08:33:18.638Z,1975
2022-11-03T08:42:56.595Z,2219.17
2022-11-03T08:52:34.439Z,2323.33
2022-11-03T09:02:12.352Z,2355.83
2022-11-03T09:11:50.267Z,2785.83
2022-11-03T09:21:29.139Z,3099.17
2022-11-03T09:31:06.667Z,2733.33
2022-11-03T09:40:44.247Z,3223.33
2022-11-03T09:50:23.106Z,4172.5
2022-11-03T10:00:01.539Z,4068.33
2022-11-03T10:09:39.952Z,4195
2022-11-03T10:19:18.064Z,3798.33
2022-11-03T10:28:55.525Z,4276.67
2022-11-03T10:38:34.096Z,5276.67
2022-11-03T10:48:14.100Z,33863.33
2022-11-03T10:58:15.320Z,49075
2022-11-03T11:08:03.094Z,37568.33
2022-11-03T11:17:43.448Z,51280.83
2022-11-03T11:27:23.129Z,36658.33
2022-11-03T11:36:58.020Z,24848.33
2022-11-03T11:46:25.836Z,7349.17
2022-11-03T11:55:55.846Z,7266.67
2022-11-03T12:05:31.143Z,8664.17
2022-11-03T12:15:09.260Z,9280
2022-11-03T12:24:46.818Z,7781.67
2022-11-03T12:34:25.592Z,11751.67
2022-11-03T12:44:04.410Z,18423.33
2022-11-03T12:53:47.052Z,17419.17
2022-11-03T13:03:33.185Z,24555
2022-11-03T13:13:05.685Z,10370.83
2022-11-03T13:22:43.937Z,17215.83
2022-11-03T13:41:51.728Z,9265
2022-11-03T13:51:26.100Z,4716.67
2022-11-03T14:00:59.823Z,2772.5
2022-11-03T14:10:34.262Z,2057.5
2022-11-03T14:29:44.082Z,968.33
2022-11-03T14:39:19.944Z,683.33
2022-11-03T14:48:56.067Z,501.67
2022-11-03T14:58:32.416Z,627.5
2022-11-03T15:08:09.819Z,627.5
2022-11-03T15:17:46.079Z,331.67
2022-11-03T15:36:58.746Z,81.67
2022-11-03T15:46:36.021Z,36.67
2022-11-03T15:56:12.459Z,10.83
2022-11-03T16:15:25.855Z,0.83
2022-11-03T16:25:02.526Z,0
2022-11-03T16:44:16.315Z,0
2022-11-03T16:53:52.987Z,0
2022-11-03T17:03:30.004Z,0
2022-11-03T17:13:10.116Z,0
2022-11-03T17:22:44.643Z,0
2022-11-03T17:32:21.427Z,0
2022-11-03T17:41:58.087Z,0
2022-11-03T17:51:35.142Z,0
2022-11-03T18:01:12.055Z,0
2022-11-03T18:10:48.894Z,0
2022-11-03T18:20:25.227Z,0
2022-11-03T18:30:02.142Z,0
2022-11-03T18:39:38.699Z,0
2022-11-03T19:08:30.043Z,0
2022-11-03T19:18:07.083Z,0
2022-11-03T19:27:42.944Z,0
2022-11-03T19:37:19.458Z,0
2022-11-03T19:46:56.412Z,0
2022-11-03T20:06:09.006Z,0
2022-11-03T20:15:45.433Z,0
2022-11-03T20:25:22.524Z,0
2022-11-03T20:34:59.179Z,0
2022-11-03T20:44:36.269Z,0
2022-11-03T20:54:13.105Z,0
2022-11-03T21:04:00.160Z,0
2022-11-03T21:13:27.560Z,0
2022-11-03T21:23:04.842Z,0
2022-11-03T21:32:44.057Z,0
2022-11-03T21:42:19.717Z,0
2022-11-03T21:51:56.668Z,0
2022-11-03T22:01:33.965Z,0
2022-11-03T22:11:11.430Z,0
2022-11-03T22:20:48.821Z,0
2022-11-03T22:30:25.912Z,0
2022-11-03T22:40:02.997Z,0
2022-11-03T22:49:42.021Z,0
2022-11-03T22:59:17.464Z,0
2022-11-03T23:18:32.334Z,0
2022-11-03T23:28:09.543Z,0
2022-11-03T23:37:46.789Z,0
2022-11-03T23:47:23.893Z,0
